createdAt,value
2017-03-27T00:00:34.382Z,961.55
2017-03-27T00:02:47.042Z,961.57
2017-03-27T00:03:39.896Z,961.57
2017-03-27T00:05:29.137Z,961.58
2017-03-27T00:06:45.375Z,961.53
2017-03-27T00:07:27.604Z,961.51
2017-03-27T00:09:40.641Z,961.54
2017-03-27T00:10:34.524Z,961.53
2017-03-27T00:11:28.370Z,961.50
2017-03-27T00:13:40.591Z,961.51
2017-03-27T00:14:32.824Z,961.46
2017-03-27T00:16:44.843Z,961.48
2017-03-27T00:17:29.815Z,961.46
2017-03-27T00:18:34.959Z,961.49
2017-03-27T00:21:32.561Z,961.48
2017-03-27T00:22:44.581Z,961.45
2017-03-27T00:24:34.830Z,961.46
2017-03-27T00:25:30.079Z,961.43
2017-03-27T00:26:39.712Z,961.43
2017-03-27T00:28:40.685Z,961.48
2017-03-27T00:32:39.789Z,961.47
2017-03-27T00:33:32.812Z,961.44
2017-03-27T00:34:30.402Z,961.44
2017-03-27T00:35:38.602Z,961.45
2017-03-27T00:37:34.663Z,961.37
2017-03-27T00:38:43.360Z,961.43
2017-03-27T00:42:30.431Z,961.47
2017-03-27T00:46:36.904Z,961.46
2017-03-27T00:48:45.456Z,961.42
2017-03-27T00:49:45.035Z,961.45
2017-03-27T00:50:22.840Z,961.45
2017-03-27T00:53:43.129Z,961.44
2017-03-27T00:55:36.815Z,961.48
2017-03-27T00:56:39.924Z,961.47
2017-03-27T00:59:39.923Z,961.43
2017-03-27T01:01:28.202Z,961.46
2017-03-27T01:02:35.043Z,961.47
2017-03-27T01:03:32.786Z,961.49
2017-03-27T01:06:29.660Z,961.49
2017-03-27T01:07:28.063Z,961.48
2017-03-27T01:08:38.889Z,961.48
2017-03-27T01:09:30.228Z,961.51
2017-03-27T01:10:27.327Z,961.52
2017-03-27T01:12:28.028Z,961.52
2017-03-27T01:14:39.456Z,961.49
2017-03-27T01:16:40.332Z,961.51
2017-03-27T01:17:28.573Z,961.47
2017-03-27T01:18:33.064Z,961.45
2017-03-27T01:19:34.686Z,961.46
2017-03-27T01:20:34.453Z,961.49
2017-03-27T01:21:34.577Z,961.47
2017-03-27T01:22:27.573Z,961.55
2017-03-27T01:23:27.508Z,961.47
2017-03-27T01:24:27.605Z,961.46
2017-03-27T01:25:28.386Z,961.46
2017-03-27T01:26:28.056Z,961.43
2017-03-27T01:27:34.127Z,961.45
2017-03-27T01:28:33.137Z,961.44
2017-03-27T01:29:32.147Z,961.45
2017-03-27T01:30:28.347Z,961.43
2017-03-27T01:31:27.642Z,961.46
2017-03-27T01:32:27.584Z,961.51
2017-03-27T01:33:39.557Z,961.50
2017-03-27T01:34:27.643Z,961.46
2017-03-27T01:35:28.618Z,961.48
2017-03-27T01:36:27.654Z,961.45
2017-03-27T01:37:35.000Z,961.46
2017-03-27T01:38:27.879Z,961.45
2017-03-27T01:39:27.597Z,961.42
2017-03-27T01:40:34.199Z,961.42
2017-03-27T01:41:27.955Z,961.42
2017-03-27T01:42:27.444Z,961.47
2017-03-27T01:43:27.726Z,961.48
2017-03-27T01:44:28.476Z,961.46
2017-03-27T01:45:34.266Z,961.44
2017-03-27T01:46:28.116Z,961.45
2017-03-27T01:47:22.346Z,961.43
2017-03-27T01:48:34.579Z,961.37
2017-03-27T01:49:28.124Z,961.36
2017-03-27T01:50:28.274Z,961.41
2017-03-27T01:51:34.266Z,961.40
2017-03-27T01:52:27.635Z,961.41
2017-03-27T01:53:27.782Z,961.41
2017-03-27T01:54:28.199Z,961.42
2017-03-27T01:55:28.075Z,961.45
2017-03-27T01:56:27.781Z,961.42
2017-03-27T01:57:28.247Z,961.39
2017-03-27T01:58:40.312Z,961.41
2017-03-27T01:59:27.897Z,961.40
2017-03-27T02:00:27.325Z,961.45
2017-03-27T02:01:32.787Z,961.47
2017-03-27T02:02:32.898Z,961.49
2017-03-27T02:03:27.987Z,961.47
2017-03-27T02:04:28.057Z,961.47
2017-03-27T02:05:28.101Z,961.42
2017-03-27T02:06:27.934Z,961.44
2017-03-27T02:07:45.852Z,961.39
2017-03-27T02:08:27.949Z,961.39
2017-03-27T02:09:32.298Z,961.39
2017-03-27T02:10:27.527Z,961.38
2017-03-27T02:11:35.301Z,961.39
2017-03-27T02:12:27.681Z,961.42
2017-03-27T02:13:27.649Z,961.39
2017-03-27T02:14:32.608Z,961.36
2017-03-27T02:15:27.688Z,961.33
2017-03-27T02:16:34.168Z,961.38
2017-03-27T02:17:28.017Z,961.32
2017-03-27T02:18:27.658Z,961.31
2017-03-27T02:19:32.321Z,961.32
2017-03-27T02:20:33.317Z,961.38
2017-03-27T02:21:27.766Z,961.36
2017-03-27T02:22:32.791Z,961.39
2017-03-27T02:23:27.966Z,961.30
2017-03-27T02:24:27.718Z,961.35
2017-03-27T02:25:32.896Z,961.32
2017-03-27T02:26:29.025Z,961.33
2017-03-27T02:27:27.724Z,961.24
2017-03-27T02:28:27.726Z,961.26
2017-03-27T02:29:27.937Z,961.26
2017-03-27T02:30:27.697Z,961.28
2017-03-27T02:31:27.676Z,961.27
2017-03-27T02:32:27.677Z,961.28
2017-03-27T02:33:27.676Z,961.28
2017-03-27T02:34:27.764Z,961.26
2017-03-27T02:35:28.338Z,961.28
2017-03-27T02:36:28.281Z,961.30
2017-03-27T02:37:33.057Z,961.24
2017-03-27T02:38:28.344Z,961.24
2017-03-27T02:39:32.790Z,961.19
2017-03-27T02:40:45.317Z,961.22
2017-03-27T02:41:32.325Z,961.18
2017-03-27T02:42:27.550Z,961.20
2017-03-27T02:43:33.347Z,961.17
2017-03-27T02:44:32.355Z,961.17
2017-03-27T02:45:27.696Z,961.20
2017-03-27T02:46:33.308Z,961.16
2017-03-27T02:47:27.751Z,961.19
2017-03-27T02:48:28.119Z,961.18
2017-03-27T02:49:33.162Z,961.17
2017-03-27T02:50:39.680Z,961.13
2017-03-27T02:51:27.997Z,961.18
2017-03-27T02:52:27.757Z,961.21
2017-03-27T02:53:28.005Z,961.22
2017-03-27T02:54:28.068Z,961.17
2017-03-27T02:55:28.069Z,961.17
2017-03-27T02:56:32.058Z,961.16
2017-03-27T02:57:28.107Z,961.11
2017-03-27T02:58:28.366Z,961.14
2017-03-27T02:59:28.321Z,961.12
2017-03-27T03:00:28.319Z,961.18
2017-03-27T03:01:45.255Z,961.17
2017-03-27T03:02:32.376Z,961.15
2017-03-27T03:03:27.846Z,961.16
2017-03-27T03:04:32.139Z,961.14
2017-03-27T03:05:28.195Z,961.19
2017-03-27T03:06:35.159Z,961.19
2017-03-27T03:07:28.910Z,961.20
2017-03-27T03:08:28.481Z,961.16
2017-03-27T03:09:28.386Z,961.20
2017-03-27T03:10:32.062Z,961.16
2017-03-27T03:11:28.167Z,961.24
2017-03-27T03:12:32.242Z,961.15
2017-03-27T03:13:28.105Z,961.15
2017-03-27T03:14:31.899Z,961.18
2017-03-27T03:15:27.945Z,961.17
2017-03-27T03:16:34.582Z,961.17
2017-03-27T03:17:27.980Z,961.18
2017-03-27T03:18:27.767Z,961.16
2017-03-27T03:19:27.741Z,961.14
2017-03-27T03:20:29.300Z,961.13
2017-03-27T03:21:34.582Z,961.18
2017-03-27T03:22:32.327Z,961.21
2017-03-27T03:23:38.404Z,961.15
2017-03-27T03:24:32.398Z,961.16
2017-03-27T03:25:27.552Z,961.18
2017-03-27T03:26:27.906Z,961.16
2017-03-27T03:27:27.748Z,961.19
2017-03-27T03:28:34.408Z,961.18
2017-03-27T03:29:27.849Z,961.20
2017-03-27T03:30:27.872Z,961.16
2017-03-27T03:31:45.411Z,961.16
2017-03-27T03:32:32.407Z,961.13
2017-03-27T03:33:32.411Z,961.12
2017-03-27T03:34:32.388Z,961.08
2017-03-27T03:35:28.523Z,961.13
2017-03-27T03:36:28.092Z,961.14
2017-03-27T03:37:34.423Z,961.15
2017-03-27T03:38:28.181Z,961.08
2017-03-27T03:39:34.381Z,961.12
2017-03-27T03:40:27.549Z,961.05
2017-03-27T03:41:34.419Z,961.08
2017-03-27T03:42:28.301Z,961.08
2017-03-27T03:43:27.860Z,961.05
2017-03-27T03:44:35.263Z,961.04
2017-03-27T03:45:27.904Z,961.04
2017-03-27T03:46:28.268Z,961.05
2017-03-27T03:47:32.092Z,961.03
2017-03-27T03:48:27.484Z,960.98
2017-03-27T03:49:27.480Z,961.01
2017-03-27T03:50:27.777Z,960.98
2017-03-27T03:51:32.585Z,960.93
2017-03-27T03:52:27.838Z,960.93
2017-03-27T03:53:28.065Z,960.93
2017-03-27T03:54:28.130Z,960.93
2017-03-27T03:55:28.365Z,960.94
2017-03-27T03:56:28.061Z,960.92
2017-03-27T03:57:28.391Z,960.92
2017-03-27T03:58:33.338Z,960.94
2017-03-27T03:59:27.616Z,960.89
2017-03-27T04:00:33.220Z,960.86
2017-03-27T04:01:34.451Z,960.93
2017-03-27T04:02:35.320Z,960.92
2017-03-27T04:03:32.441Z,960.99
2017-03-27T04:04:27.638Z,961.00
2017-03-27T04:05:27.859Z,961.02
2017-03-27T04:06:37.922Z,961.04
2017-03-27T04:07:28.465Z,961.03
2017-03-27T04:08:43.576Z,961.04
2017-03-27T04:09:27.810Z,961.00
2017-03-27T04:10:34.925Z,960.99
2017-03-27T04:11:27.510Z,961.01
2017-03-27T04:12:45.240Z,960.95
2017-03-27T04:13:32.171Z,961.04
2017-03-27T04:14:32.233Z,961.05
2017-03-27T04:15:32.049Z,961.00
2017-03-27T04:16:34.443Z,960.98
2017-03-27T04:17:27.937Z,961.02
2017-03-27T04:18:28.257Z,961.01
2017-03-27T04:19:28.122Z,961.01
2017-03-27T04:20:28.267Z,960.99
2017-03-27T04:21:28.241Z,961.02
2017-03-27T04:22:28.626Z,961.02
2017-03-27T04:23:33.334Z,961.01
2017-03-27T04:24:31.991Z,960.98
2017-03-27T04:26:28.491Z,961.00
2017-03-27T04:27:28.370Z,961.01
2017-03-27T04:28:28.202Z,961.02
2017-03-27T04:29:34.430Z,961.06
2017-03-27T04:30:32.052Z,961.07
2017-03-27T04:31:33.012Z,961.07
2017-03-27T04:32:34.433Z,961.07
2017-03-27T04:33:28.202Z,961.09
2017-03-27T04:34:28.205Z,961.06
2017-03-27T04:35:27.693Z,961.06
2017-03-27T04:36:27.548Z,961.08
2017-03-27T04:37:34.730Z,961.12
2017-03-27T04:38:28.066Z,961.11
2017-03-27T04:39:28.174Z,961.10
2017-03-27T04:40:27.554Z,961.08
2017-03-27T04:41:32.780Z,961.06
2017-03-27T04:42:33.026Z,961.06
2017-03-27T04:43:34.756Z,961.00
2017-03-27T04:44:32.512Z,961.02
2017-03-27T04:45:32.533Z,961.03
2017-03-27T04:46:28.363Z,961.01
2017-03-27T04:47:34.756Z,961.07
2017-03-27T04:48:38.545Z,961.06
2017-03-27T04:49:27.567Z,961.09
2017-03-27T04:50:27.806Z,961.08
2017-03-27T04:51:27.921Z,961.10
2017-03-27T04:52:28.222Z,961.12
2017-03-27T04:53:28.329Z,961.08
2017-03-27T04:54:28.595Z,961.11
2017-03-27T04:55:28.171Z,961.15
2017-03-27T04:56:28.508Z,961.13
2017-03-27T04:57:32.945Z,961.13
2017-03-27T04:58:33.235Z,961.12
2017-03-27T04:59:28.310Z,961.15
2017-03-27T05:00:34.954Z,961.13
2017-03-27T05:01:27.960Z,961.16
2017-03-27T05:02:27.877Z,961.12
2017-03-27T05:03:27.883Z,961.12
2017-03-27T05:04:33.126Z,961.10
2017-03-27T05:05:38.046Z,961.06
2017-03-27T05:06:39.811Z,961.10
2017-03-27T05:07:32.561Z,961.07
2017-03-27T05:08:21.943Z,961.10
2017-03-27T05:09:28.673Z,961.06
2017-03-27T05:10:34.854Z,961.12
2017-03-27T05:11:28.103Z,961.10
2017-03-27T05:12:34.852Z,961.07
2017-03-27T05:13:32.481Z,961.10
2017-03-27T05:14:28.324Z,961.13
2017-03-27T05:15:31.853Z,961.09
2017-03-27T05:16:39.595Z,961.14
2017-03-27T05:17:27.793Z,961.12
2017-03-27T05:18:28.706Z,961.13
2017-03-27T05:19:28.670Z,961.17
2017-03-27T05:20:37.452Z,961.17
2017-03-27T05:21:28.307Z,961.12
2017-03-27T05:22:44.414Z,961.14
2017-03-27T05:23:32.585Z,961.09
2017-03-27T05:24:27.829Z,961.10
2017-03-27T05:25:28.692Z,961.10
2017-03-27T05:26:34.917Z,961.11
2017-03-27T05:27:28.023Z,961.16
2017-03-27T05:28:32.435Z,961.14
2017-03-27T05:29:27.971Z,961.17
2017-03-27T05:30:27.866Z,961.10
2017-03-27T05:31:28.397Z,961.10
2017-03-27T05:32:27.932Z,961.15
2017-03-27T05:33:32.588Z,961.15
2017-03-27T05:34:27.799Z,961.18
2017-03-27T05:35:28.475Z,961.18
2017-03-27T05:36:32.582Z,961.25
2017-03-27T05:37:39.664Z,961.15
2017-03-27T05:38:32.934Z,961.15
2017-03-27T05:39:28.322Z,961.18
2017-03-27T05:40:32.954Z,961.13
2017-03-27T05:41:34.952Z,961.15
2017-03-27T05:42:28.143Z,961.16
2017-03-27T05:43:28.290Z,961.18
2017-03-27T05:44:27.989Z,961.16
2017-03-27T05:45:32.588Z,961.18
2017-03-27T05:46:32.692Z,961.21
2017-03-27T05:47:32.968Z,961.24
2017-03-27T05:48:27.999Z,961.26
2017-03-27T05:49:32.071Z,961.26
2017-03-27T05:50:27.286Z,961.28
2017-03-27T05:51:37.544Z,961.25
2017-03-27T05:52:27.712Z,961.25
2017-03-27T05:53:32.400Z,961.25
2017-03-27T05:54:34.591Z,961.24
2017-03-27T05:55:32.581Z,961.25
2017-03-27T05:56:40.582Z,961.30
2017-03-27T05:57:32.449Z,961.29
2017-03-27T05:58:32.552Z,961.27
2017-03-27T05:59:32.063Z,961.23
2017-03-27T06:00:28.048Z,961.25
2017-03-27T06:01:40.724Z,961.23
2017-03-27T06:02:32.982Z,961.27
2017-03-27T06:03:28.082Z,961.29
2017-03-27T06:04:28.033Z,961.38
2017-03-27T06:05:32.581Z,961.35
2017-03-27T06:06:34.352Z,961.38
2017-03-27T06:07:27.503Z,961.34
2017-03-27T06:08:32.863Z,961.32
2017-03-27T06:09:28.449Z,961.33
2017-03-27T06:10:28.029Z,961.31
2017-03-27T06:11:32.188Z,961.33
2017-03-27T06:12:32.299Z,961.35
2017-03-27T06:13:27.536Z,961.32
2017-03-27T06:14:32.213Z,961.36
2017-03-27T06:15:33.375Z,961.32
2017-03-27T06:16:28.343Z,961.35
2017-03-27T06:17:40.795Z,961.33
2017-03-27T06:18:32.898Z,961.35
2017-03-27T06:19:28.053Z,961.29
2017-03-27T06:20:28.036Z,961.34
2017-03-27T06:21:28.278Z,961.26
2017-03-27T06:22:27.848Z,961.27
2017-03-27T06:23:27.985Z,961.33
2017-03-27T06:24:34.862Z,961.35
2017-03-27T06:25:33.038Z,961.29
2017-03-27T06:26:32.941Z,961.29
2017-03-27T06:27:28.159Z,961.29
2017-03-27T06:28:27.988Z,961.29
2017-03-27T06:29:39.417Z,961.25
2017-03-27T06:30:32.762Z,961.28
2017-03-27T06:31:32.573Z,961.27
2017-03-27T06:32:32.487Z,961.29
2017-03-27T06:33:28.191Z,961.22
2017-03-27T06:34:28.570Z,961.24
2017-03-27T06:35:27.724Z,961.24
2017-03-27T06:36:34.759Z,961.18
2017-03-27T06:37:27.774Z,961.14
2017-03-27T06:38:28.309Z,961.11
2017-03-27T06:39:32.437Z,961.09
2017-03-27T06:40:27.404Z,961.13
2017-03-27T06:41:32.438Z,961.15
2017-03-27T06:42:32.437Z,961.18
2017-03-27T06:43:32.318Z,961.13
2017-03-27T06:44:32.440Z,961.10
2017-03-27T06:45:34.510Z,961.16
2017-03-27T06:46:38.588Z,961.14
2017-03-27T06:47:27.858Z,961.17
2017-03-27T06:48:33.459Z,961.14
2017-03-27T06:49:27.719Z,961.18
2017-03-27T06:50:32.640Z,961.14
2017-03-27T06:51:27.931Z,961.14
2017-03-27T06:52:28.327Z,961.15
2017-03-27T06:53:39.710Z,961.09
2017-03-27T06:54:28.091Z,961.13
2017-03-27T06:55:33.569Z,961.12
2017-03-27T06:56:32.670Z,961.15
2017-03-27T06:57:19.147Z,961.11
2017-03-27T06:58:34.579Z,961.12
2017-03-27T06:59:28.035Z,961.08
2017-03-27T07:00:35.587Z,961.08
2017-03-27T07:01:28.299Z,961.08
2017-03-27T07:02:42.329Z,961.07
2017-03-27T07:03:27.739Z,961.05
2017-03-27T07:04:28.409Z,961.02
2017-03-27T07:05:27.795Z,961.05
2017-03-27T07:06:34.826Z,961.04
2017-03-27T07:07:33.848Z,960.99
2017-03-27T07:08:28.148Z,961.01
2017-03-27T07:09:34.860Z,961.05
2017-03-27T07:10:27.908Z,960.97
2017-03-27T07:11:33.069Z,961.00
2017-03-27T07:12:27.749Z,961.04
2017-03-27T07:13:32.890Z,961.03
2017-03-27T07:14:28.106Z,961.02
2017-03-27T07:15:27.746Z,961.03
2017-03-27T07:16:34.678Z,961.05
2017-03-27T07:17:32.317Z,961.07
2017-03-27T07:18:28.487Z,961.03
2017-03-27T07:19:37.425Z,961.04
2017-03-27T07:20:35.027Z,961.04
2017-03-27T07:21:34.019Z,961.05
2017-03-27T07:22:35.220Z,961.03
2017-03-27T07:23:27.980Z,961.00
2017-03-27T07:24:37.341Z,960.99
2017-03-27T07:25:27.470Z,961.02
2017-03-27T07:26:32.588Z,961.00
2017-03-27T07:27:32.688Z,960.97
2017-03-27T07:28:32.579Z,960.97
2017-03-27T07:29:22.971Z,960.97
2017-03-27T07:30:32.256Z,961.01
2017-03-27T07:31:28.169Z,960.99
2017-03-27T07:32:32.697Z,961.01
2017-03-27T07:33:37.498Z,960.99
2017-03-27T07:34:32.277Z,960.99
2017-03-27T07:35:39.287Z,960.99
2017-03-27T07:36:32.289Z,961.02
2017-03-27T07:37:32.285Z,961.01
2017-03-27T07:38:32.291Z,960.99
2017-03-27T07:39:33.637Z,960.99
2017-03-27T07:40:33.211Z,961.01
2017-03-27T07:41:27.426Z,960.96
2017-03-27T07:42:32.141Z,960.99
2017-03-27T07:43:28.389Z,960.96
2017-03-27T07:44:27.998Z,960.92
2017-03-27T07:45:28.447Z,960.94
2017-03-27T07:46:35.457Z,960.97
2017-03-27T07:47:32.186Z,960.96
2017-03-27T07:48:35.548Z,960.96
2017-03-27T07:49:31.812Z,960.95
2017-03-27T07:50:28.413Z,960.92
2017-03-27T07:51:28.216Z,960.97
2017-03-27T07:52:27.873Z,960.94
2017-03-27T07:53:34.870Z,960.94
2017-03-27T07:54:28.318Z,960.98
2017-03-27T07:55:28.645Z,960.93
2017-03-27T07:56:32.560Z,960.95
2017-03-27T07:57:32.558Z,960.93
2017-03-27T07:58:27.669Z,960.99
2017-03-27T07:59:32.395Z,960.98
2017-03-27T08:00:28.174Z,960.94
2017-03-27T08:01:32.315Z,960.94
2017-03-27T08:02:32.579Z,960.99
2017-03-27T08:03:32.567Z,961.03
2017-03-27T08:04:32.324Z,960.98
2017-03-27T08:05:32.443Z,960.95
2017-03-27T08:06:27.825Z,960.93
2017-03-27T08:07:27.885Z,960.92
2017-03-27T08:08:28.036Z,960.92
2017-03-27T08:09:32.576Z,960.92
2017-03-27T08:10:27.111Z,960.94
2017-03-27T08:11:28.336Z,960.98
2017-03-27T08:12:32.925Z,960.96
2017-03-27T08:13:32.228Z,960.96
2017-03-27T08:14:32.036Z,961.00
2017-03-27T08:15:27.916Z,961.02
2017-03-27T08:16:27.980Z,960.99
2017-03-27T08:17:32.045Z,961.00
2017-03-27T08:18:27.835Z,960.98
2017-03-27T08:19:32.566Z,960.96
2017-03-27T08:20:32.596Z,961.00
2017-03-27T08:21:34.666Z,960.95
2017-03-27T08:22:27.865Z,960.92
2017-03-27T08:23:27.903Z,960.90
2017-03-27T08:24:32.272Z,960.90
2017-03-27T08:25:32.242Z,960.98
2017-03-27T08:26:32.275Z,960.96
2017-03-27T08:27:27.852Z,960.93
2017-03-27T08:28:32.705Z,960.95
2017-03-27T08:29:27.565Z,960.96
2017-03-27T08:30:32.127Z,960.96
2017-03-27T08:31:22.555Z,960.95
2017-03-27T08:32:32.577Z,960.90
2017-03-27T08:33:34.838Z,960.95
2017-03-27T08:34:34.755Z,960.91
2017-03-27T08:35:29.781Z,960.92
2017-03-27T08:36:22.260Z,960.93
2017-03-27T08:37:22.401Z,960.92
2017-03-27T08:38:35.065Z,960.92
2017-03-27T08:39:28.272Z,960.91
2017-03-27T08:40:27.864Z,960.95
2017-03-27T08:41:34.928Z,960.89
2017-03-27T08:42:33.106Z,960.94
2017-03-27T08:43:32.487Z,960.94
2017-03-27T08:44:28.302Z,960.89
2017-03-27T08:45:32.483Z,960.93
2017-03-27T08:46:34.829Z,960.94
2017-03-27T08:47:28.188Z,960.95
2017-03-27T08:48:32.325Z,960.94
2017-03-27T08:49:39.478Z,960.97
2017-03-27T08:50:32.285Z,960.99
2017-03-27T08:51:31.987Z,960.95
2017-03-27T08:52:34.632Z,961.01
2017-03-27T08:53:32.325Z,961.00
2017-03-27T08:54:32.353Z,960.98
2017-03-27T08:55:39.337Z,961.02
2017-03-27T08:56:32.589Z,960.98
2017-03-27T08:57:33.578Z,960.98
2017-03-27T08:58:27.896Z,961.02
2017-03-27T08:59:33.374Z,960.99
2017-03-27T09:00:39.218Z,961.00
2017-03-27T09:01:32.384Z,960.99
2017-03-27T09:02:27.222Z,960.99
2017-03-27T09:03:39.859Z,961.02
2017-03-27T09:04:28.071Z,960.97
2017-03-27T09:05:28.426Z,960.98
2017-03-27T09:06:34.689Z,960.94
2017-03-27T09:07:32.571Z,961.02
2017-03-27T09:08:31.270Z,960.93
2017-03-27T09:09:28.942Z,960.95
2017-03-27T09:10:28.376Z,960.94
2017-03-27T09:11:28.006Z,960.97
2017-03-27T09:12:28.925Z,960.98
2017-03-27T09:13:34.790Z,960.98
2017-03-27T09:14:27.917Z,961.02
2017-03-27T09:15:28.408Z,961.00
2017-03-27T09:16:28.248Z,961.04
2017-03-27T09:17:32.056Z,961.01
2017-03-27T09:18:32.944Z,960.98
2017-03-27T09:20:27.721Z,960.99
2017-03-27T09:21:30.897Z,960.97
2017-03-27T09:22:32.138Z,960.95
2017-03-27T09:23:28.292Z,960.99
2017-03-27T09:24:33.008Z,960.98
2017-03-27T09:25:32.986Z,960.96
2017-03-27T09:26:27.937Z,960.92
2017-03-27T09:27:27.937Z,960.92
2017-03-27T09:28:32.593Z,960.95
2017-03-27T09:29:28.179Z,960.99
2017-03-27T09:30:34.730Z,960.96
2017-03-27T09:31:27.939Z,960.99
2017-03-27T09:32:32.318Z,960.99
2017-03-27T09:33:32.319Z,961.01
2017-03-27T09:34:32.928Z,961.00
2017-03-27T09:35:27.967Z,960.97
2017-03-27T09:36:32.438Z,960.96
2017-03-27T09:37:27.952Z,961.02
2017-03-27T09:38:28.065Z,960.97
2017-03-27T09:39:32.308Z,960.96
2017-03-27T09:40:32.169Z,960.96
2017-03-27T09:41:28.030Z,960.91
2017-03-27T09:42:28.220Z,961.03
2017-03-27T09:43:34.222Z,960.94
2017-03-27T09:44:27.961Z,960.96
2017-03-27T09:45:38.202Z,960.90
2017-03-27T09:46:32.198Z,960.93
2017-03-27T09:47:28.647Z,960.91
2017-03-27T09:48:28.347Z,960.94
2017-03-27T09:49:39.552Z,960.89
2017-03-27T09:50:34.740Z,960.89
2017-03-27T09:51:28.291Z,960.89
2017-03-27T09:52:40.132Z,960.88
2017-03-27T09:53:40.362Z,960.93
2017-03-27T09:54:27.619Z,960.93
2017-03-27T09:55:32.349Z,960.95
2017-03-27T09:56:28.489Z,960.90
2017-03-27T09:57:41.251Z,960.95
2017-03-27T09:58:32.570Z,960.95
2017-03-27T09:59:32.570Z,960.97
2017-03-27T10:00:34.642Z,960.94
2017-03-27T10:01:33.714Z,960.93
2017-03-27T10:02:32.572Z,960.93
2017-03-27T10:03:28.325Z,960.93
2017-03-27T10:04:32.514Z,960.93
2017-03-27T10:05:28.279Z,960.89
2017-03-27T10:06:32.270Z,960.95
2017-03-27T10:07:32.593Z,960.96
2017-03-27T10:08:35.233Z,960.89
2017-03-27T10:09:32.272Z,960.92
2017-03-27T10:10:32.271Z,960.93
2017-03-27T10:11:32.272Z,960.94
2017-03-27T10:12:28.810Z,960.87
2017-03-27T10:13:35.225Z,960.90
2017-03-27T10:14:32.171Z,960.94
2017-03-27T10:15:27.335Z,960.87
2017-03-27T10:16:32.572Z,960.91
2017-03-27T10:17:27.334Z,960.93
2017-03-27T10:18:33.210Z,960.91
2017-03-27T10:19:44.604Z,960.96
2017-03-27T10:20:32.450Z,960.94
2017-03-27T10:21:30.664Z,960.94
2017-03-27T10:22:28.044Z,960.91
2017-03-27T10:23:28.128Z,960.90
2017-03-27T10:24:28.315Z,960.89
2017-03-27T10:25:32.930Z,960.89
2017-03-27T10:26:32.206Z,960.88
2017-03-27T10:27:28.562Z,960.87
2017-03-27T10:28:38.173Z,960.92
2017-03-27T10:29:39.564Z,960.93
2017-03-27T10:30:32.570Z,960.92
2017-03-27T10:31:28.475Z,960.91
2017-03-27T10:32:33.214Z,960.87
2017-03-27T10:33:31.933Z,960.89
2017-03-27T10:34:28.215Z,960.93
2017-03-27T10:35:27.344Z,960.86
2017-03-27T10:36:28.388Z,960.86
2017-03-27T10:37:28.683Z,960.82
2017-03-27T10:38:35.584Z,960.89
2017-03-27T10:39:40.138Z,960.89
2017-03-27T10:40:35.371Z,960.87
2017-03-27T10:41:28.491Z,960.92
2017-03-27T10:42:37.109Z,960.89
2017-03-27T10:43:32.575Z,960.90
2017-03-27T10:44:32.674Z,960.83
2017-03-27T10:45:32.674Z,960.80
2017-03-27T10:46:32.673Z,960.81
2017-03-27T10:47:27.123Z,960.84
2017-03-27T10:48:32.262Z,960.84
2017-03-27T10:49:32.260Z,960.82
2017-03-27T10:50:32.673Z,960.86
2017-03-27T10:51:29.249Z,960.82
2017-03-27T10:52:32.449Z,960.84
2017-03-27T10:53:32.433Z,960.82
2017-03-27T10:54:32.383Z,960.85
2017-03-27T10:55:32.483Z,960.86
2017-03-27T10:56:32.480Z,960.79
2017-03-27T10:57:32.484Z,960.85
2017-03-27T10:58:32.480Z,960.81
2017-03-27T10:59:32.584Z,960.78
2017-03-27T11:00:32.593Z,960.72
2017-03-27T11:01:27.703Z,960.69
2017-03-27T11:02:23.355Z,960.71
2017-03-27T11:03:33.886Z,960.72
2017-03-27T11:04:39.614Z,960.64
2017-03-27T11:05:34.885Z,960.76
2017-03-27T11:06:39.887Z,960.63
2017-03-27T11:07:28.731Z,960.64
2017-03-27T11:08:37.955Z,960.62
2017-03-27T11:09:35.347Z,960.60
2017-03-27T11:10:32.321Z,960.69
2017-03-27T11:11:33.115Z,960.67
2017-03-27T11:12:28.246Z,960.56
2017-03-27T11:13:28.215Z,960.55
2017-03-27T11:14:28.635Z,960.51
2017-03-27T11:15:10.848Z,960.53
2017-03-27T11:16:10.109Z,960.58
2017-03-27T11:17:32.946Z,960.60
2017-03-27T11:18:35.245Z,960.53
2017-03-27T11:19:27.293Z,960.59
2017-03-27T11:20:32.578Z,960.56
2017-03-27T11:21:28.737Z,960.53
2017-03-27T11:22:37.816Z,960.55
2017-03-27T11:23:28.175Z,960.46
2017-03-27T11:24:29.963Z,960.50
2017-03-27T11:25:33.263Z,960.58
2017-03-27T11:26:32.260Z,960.53
2017-03-27T11:27:32.584Z,960.54
2017-03-27T11:28:32.653Z,960.58
2017-03-27T11:29:32.587Z,960.55
2017-03-27T11:30:32.583Z,960.54
2017-03-27T11:31:39.956Z,960.58
2017-03-27T11:32:28.595Z,960.54
2017-03-27T11:33:32.585Z,960.48
2017-03-27T11:34:32.593Z,960.46
2017-03-27T11:35:38.009Z,960.51
2017-03-27T11:36:28.353Z,960.61
2017-03-27T11:37:32.648Z,960.58
2017-03-27T11:38:32.491Z,960.56
2017-03-27T11:39:32.521Z,960.53
2017-03-27T11:40:28.283Z,960.52
2017-03-27T11:41:28.200Z,960.51
2017-03-27T11:42:32.665Z,960.47
2017-03-27T11:43:28.530Z,960.51
2017-03-27T11:44:28.275Z,960.46
2017-03-27T11:45:28.262Z,960.41
2017-03-27T11:46:32.530Z,960.43
2017-03-27T11:47:29.285Z,960.38
2017-03-27T11:48:33.335Z,960.45
2017-03-27T11:49:32.546Z,960.42
2017-03-27T11:50:32.788Z,960.41
2017-03-27T11:51:28.549Z,960.34
2017-03-27T11:52:32.546Z,960.33
2017-03-27T11:53:32.501Z,960.39
2017-03-27T11:54:32.563Z,960.35
2017-03-27T11:55:28.283Z,960.36
2017-03-27T11:56:39.534Z,960.30
2017-03-27T11:57:28.141Z,960.30
2017-03-27T11:58:32.303Z,960.30
2017-03-27T11:59:34.994Z,960.30
2017-03-27T12:00:28.817Z,960.26
2017-03-27T12:01:32.524Z,960.26
2017-03-27T12:02:32.584Z,960.28
2017-03-27T12:03:32.591Z,960.26
2017-03-27T12:04:32.174Z,960.23
2017-03-27T12:05:32.052Z,960.19
2017-03-27T12:06:28.873Z,960.19
2017-03-27T12:07:32.569Z,960.16
2017-03-27T12:08:32.325Z,960.19
2017-03-27T12:09:33.069Z,960.16
2017-03-27T12:10:28.435Z,960.18
2017-03-27T12:11:32.686Z,960.14
2017-03-27T12:12:32.807Z,960.17
2017-03-27T12:13:40.087Z,960.06
2017-03-27T12:14:28.164Z,960.05
2017-03-27T12:15:33.113Z,960.09
2017-03-27T12:16:33.125Z,960.05
2017-03-27T12:17:39.043Z,960.06
2017-03-27T12:18:28.505Z,960.01
2017-03-27T12:19:28.181Z,960.01
2017-03-27T12:20:39.606Z,960.00
2017-03-27T12:21:32.414Z,959.96
2017-03-27T12:22:32.493Z,959.95
2017-03-27T12:23:32.447Z,959.98
2017-03-27T12:24:27.133Z,959.86
2017-03-27T12:25:28.898Z,959.89
2017-03-27T12:26:32.845Z,959.89
2017-03-27T12:27:29.267Z,959.92
2017-03-27T12:28:32.595Z,959.94
2017-03-27T12:29:33.088Z,959.88
2017-03-27T12:30:35.591Z,959.82
2017-03-27T12:31:32.403Z,959.85
2017-03-27T12:32:33.286Z,959.80
2017-03-27T12:33:32.576Z,959.75
2017-03-27T12:34:32.590Z,959.75
2017-03-27T12:35:28.223Z,959.71
2017-03-27T12:36:32.586Z,959.79
2017-03-27T12:37:32.466Z,959.70
2017-03-27T12:38:28.267Z,959.69
2017-03-27T12:39:28.572Z,959.75
2017-03-27T12:40:33.088Z,959.69
2017-03-27T12:41:33.174Z,959.68
2017-03-27T12:42:33.168Z,959.66
2017-03-27T12:43:32.607Z,959.69
2017-03-27T12:44:32.709Z,959.66
2017-03-27T12:45:32.601Z,959.67
2017-03-27T12:46:32.697Z,959.64
2017-03-27T12:47:32.518Z,959.61
2017-03-27T12:48:32.340Z,959.60
2017-03-27T12:49:32.214Z,959.62
2017-03-27T12:50:28.488Z,959.55
2017-03-27T12:51:32.593Z,959.56
2017-03-27T12:52:32.702Z,959.58
2017-03-27T12:53:22.261Z,959.54
2017-03-27T12:54:39.569Z,959.65
2017-03-27T12:55:32.929Z,959.52
2017-03-27T12:56:34.968Z,959.61
2017-03-27T12:57:33.178Z,959.55
2017-03-27T12:58:32.144Z,959.53
2017-03-27T12:59:32.593Z,959.55
2017-03-27T13:00:27.174Z,959.53
2017-03-27T13:01:33.040Z,959.48